createdAt,value
2022-07-27T00:01:14.126Z,23.30
2022-07-27T00:03:44.763Z,23.20
2022-07-27T00:06:13.428Z,23.10
2022-07-27T00:08:41.444Z,23.10
2022-07-27T00:11:10.208Z,23.10
2022-07-27T00:13:38.571Z,23.00
2022-07-27T00:16:07.060Z,22.90
2022-07-27T00:18:35.110Z,22.90
2022-07-27T00:21:04.599Z,22.90
2022-07-27T00:23:32.589Z,23.00
2022-07-27T00:26:00.542Z,22.90
2022-07-27T00:28:28.516Z,22.80
2022-07-27T00:30:56.949Z,22.80
2022-07-27T00:33:24.904Z,22.80
2022-07-27T00:35:52.845Z,22.70
2022-07-27T00:38:22.127Z,22.70
2022-07-27T00:40:50.051Z,22.50
2022-07-27T00:43:18.011Z,22.40
2022-07-27T00:45:45.978Z,22.40
2022-07-27T00:48:13.954Z,22.40
2022-07-27T00:50:43.866Z,22.40
2022-07-27T00:53:13.853Z,22.30
2022-07-27T00:55:43.867Z,22.20
2022-07-27T00:58:11.842Z,22.10
2022-07-27T01:00:40.012Z,22.20
2022-07-27T01:03:09.929Z,22.20
2022-07-27T01:05:42.756Z,22.20
2022-07-27T01:08:13.863Z,22.30
2022-07-27T01:10:45.300Z,22.40
2022-07-27T01:13:13.825Z,22.10
2022-07-27T01:15:43.445Z,22.00
2022-07-27T01:18:26.416Z,22.10
2022-07-27T01:20:54.395Z,22.20
2022-07-27T01:23:23.700Z,22.20
2022-07-27T01:25:52.190Z,22.10
2022-07-27T01:28:20.234Z,22.10
2022-07-27T01:30:48.461Z,22.00
2022-07-27T01:33:16.689Z,22.00
2022-07-27T01:35:44.816Z,22.00
2022-07-27T01:38:13.482Z,22.10
2022-07-27T01:40:42.807Z,22.20
2022-07-27T01:43:10.784Z,22.30
2022-07-27T01:45:40.303Z,22.30
2022-07-27T01:48:08.490Z,22.30
2022-07-27T01:50:36.457Z,22.40
2022-07-27T01:53:04.441Z,22.40
2022-07-27T01:55:39.016Z,22.30
2022-07-27T01:58:09.261Z,22.20
2022-07-27T02:00:38.483Z,22.10
2022-07-27T02:03:08.487Z,22.20
2022-07-27T02:05:37.028Z,22.20
2022-07-27T02:08:05.713Z,22.20
2022-07-27T02:10:34.720Z,22.20
2022-07-27T02:13:01.700Z,22.30
2022-07-27T02:15:51.115Z,22.40
2022-07-27T02:18:33.182Z,22.40
2022-07-27T02:21:05.805Z,22.40
2022-07-27T02:23:33.979Z,22.50
2022-07-27T02:26:02.171Z,22.50
2022-07-27T02:28:30.158Z,22.50
2022-07-27T02:30:59.488Z,22.60
2022-07-27T02:33:27.871Z,22.60
2022-07-27T02:35:55.804Z,22.50
2022-07-27T02:38:23.767Z,22.50
2022-07-27T02:40:51.700Z,22.50
2022-07-27T02:43:19.676Z,22.50
2022-07-27T02:45:48.442Z,22.40
2022-07-27T02:48:17.907Z,22.40
2022-07-27T02:50:45.881Z,22.30
2022-07-27T02:53:13.935Z,22.30
2022-07-27T02:55:41.859Z,22.30
2022-07-27T02:58:09.791Z,22.20
2022-07-27T03:00:37.770Z,22.10
2022-07-27T03:03:05.757Z,22.00
2022-07-27T03:05:35.161Z,21.80
2022-07-27T03:08:04.001Z,21.50
2022-07-27T03:10:32.052Z,21.30
2022-07-27T03:13:00.029Z,21.20
2022-07-27T03:15:29.574Z,21.30
2022-07-27T03:17:58.383Z,21.30
2022-07-27T03:20:26.344Z,21.00
2022-07-27T03:22:55.752Z,20.80
2022-07-27T03:25:23.947Z,20.70
2022-07-27T03:27:51.911Z,20.70
2022-07-27T03:30:19.975Z,20.70
2022-07-27T03:32:48.792Z,20.60
2022-07-27T03:35:16.760Z,20.60
2022-07-27T03:37:47.775Z,20.70
2022-07-27T03:40:17.223Z,20.80
2022-07-27T03:42:45.550Z,21.00
2022-07-27T03:45:13.488Z,21.00
2022-07-27T03:47:41.401Z,21.20
2022-07-27T03:50:09.815Z,21.20
2022-07-27T03:52:37.830Z,21.20
2022-07-27T03:55:06.476Z,21.30
2022-07-27T03:57:35.818Z,21.40
2022-07-27T04:00:04.525Z,21.50
2022-07-27T04:02:32.575Z,21.50
2022-07-27T04:05:00.547Z,21.50
2022-07-27T04:07:28.787Z,21.50
2022-07-27T04:09:56.772Z,21.60
2022-07-27T04:12:25.131Z,21.70
2022-07-27T04:14:54.659Z,21.70
2022-07-27T04:17:55.673Z,21.80
2022-07-27T04:20:11.602Z,21.80
2022-07-27T04:22:39.553Z,21.70
2022-07-27T04:25:08.248Z,21.70
2022-07-27T04:27:36.187Z,21.70
2022-07-27T04:30:09.531Z,21.70
2022-07-27T04:32:37.917Z,21.70
2022-07-27T04:35:06.875Z,21.80
2022-07-27T04:37:35.070Z,21.80
2022-07-27T04:40:03.308Z,21.80
2022-07-27T04:42:31.266Z,21.80
2022-07-27T04:44:59.745Z,21.90
2022-07-27T04:47:29.135Z,21.80
2022-07-27T04:49:57.094Z,21.70
2022-07-27T04:52:26.762Z,21.60
2022-07-27T04:54:56.908Z,21.40
2022-07-27T04:57:24.864Z,21.50
2022-07-27T04:59:52.796Z,21.40
2022-07-27T05:02:20.849Z,21.40
2022-07-27T05:04:50.151Z,21.50
2022-07-27T05:07:18.085Z,21.30
2022-07-27T05:09:46.579Z,21.30
2022-07-27T05:12:14.540Z,21.40
2022-07-27T05:14:42.584Z,21.40
2022-07-27T05:17:10.591Z,21.40
2022-07-27T05:19:40.220Z,21.50
2022-07-27T05:22:10.590Z,21.70
2022-07-27T05:24:38.588Z,21.80
2022-07-27T05:27:07.004Z,22.00
2022-07-27T05:29:34.954Z,22.00
2022-07-27T05:32:02.993Z,22.20
2022-07-27T05:34:31.006Z,22.20
2022-07-27T05:36:58.985Z,22.20
2022-07-27T05:39:28.276Z,22.40
2022-07-27T05:41:56.398Z,22.40
2022-07-27T05:44:24.370Z,22.50
2022-07-27T05:46:52.328Z,22.50
2022-07-27T05:49:20.379Z,22.50
2022-07-27T05:51:48.286Z,22.60
2022-07-27T05:54:16.359Z,22.50
2022-07-27T05:56:45.800Z,22.50
2022-07-27T05:59:14.019Z,22.50
2022-07-27T06:01:42.249Z,22.50
2022-07-27T06:04:10.265Z,22.50
2022-07-27T06:07:00.258Z,22.40
2022-07-27T06:09:28.262Z,22.50
2022-07-27T06:11:57.598Z,22.50
2022-07-27T06:14:25.529Z,22.60
2022-07-27T06:16:53.622Z,22.30
2022-07-27T06:19:21.692Z,22.20
2022-07-27T06:21:53.659Z,22.10
2022-07-27T06:24:22.058Z,22.10
2022-07-27T06:26:50.015Z,21.90
2022-07-27T06:29:19.332Z,21.90
2022-07-27T06:31:47.434Z,21.90
2022-07-27T06:34:15.750Z,21.80
2022-07-27T06:36:45.329Z,21.80
2022-07-27T06:39:13.799Z,21.90
2022-07-27T06:41:42.125Z,21.90
2022-07-27T06:44:10.067Z,21.90
2022-07-27T06:46:39.427Z,21.80
2022-07-27T06:49:07.515Z,21.90
2022-07-27T06:51:35.621Z,22.00
2022-07-27T06:54:05.433Z,22.00
2022-07-27T06:56:33.828Z,22.10
2022-07-27T06:59:01.764Z,22.20
2022-07-27T07:01:29.792Z,22.40
2022-07-27T07:03:59.952Z,22.60
2022-07-27T07:06:28.012Z,22.60
2022-07-27T07:08:56.003Z,22.70
2022-07-27T07:11:23.951Z,22.80
2022-07-27T07:13:51.921Z,22.90
2022-07-27T07:16:19.966Z,23.00
2022-07-27T07:18:52.244Z,23.20
2022-07-27T07:21:21.983Z,23.20
2022-07-27T07:23:50.152Z,23.10
2022-07-27T07:26:18.201Z,23.20
2022-07-27T07:28:46.187Z,23.20
2022-07-27T07:31:14.255Z,23.30
2022-07-27T07:33:42.272Z,23.30
2022-07-27T07:36:13.384Z,23.30
2022-07-27T07:38:44.994Z,23.30
2022-07-27T07:41:13.928Z,23.10
2022-07-27T07:43:42.241Z,23.00
2022-07-27T07:46:10.367Z,22.90
2022-07-27T07:48:39.487Z,22.90
2022-07-27T07:51:07.582Z,22.80
2022-07-27T07:53:41.094Z,22.90
2022-07-27T07:56:11.277Z,23.00
2022-07-27T07:58:39.186Z,23.20
2022-07-27T08:01:07.176Z,23.10
2022-07-27T08:03:35.176Z,22.80
2022-07-27T08:06:03.203Z,22.20
2022-07-27T08:08:31.235Z,22.30
2022-07-27T08:10:59.110Z,22.20
2022-07-27T08:13:28.470Z,21.90
2022-07-27T08:15:56.806Z,21.70
2022-07-27T08:18:24.775Z,21.10
2022-07-27T08:20:52.785Z,21.00
2022-07-27T08:23:20.773Z,20.60
2022-07-27T08:25:48.745Z,20.60
2022-07-27T08:28:16.685Z,20.80
2022-07-27T08:30:47.718Z,20.90
2022-07-27T08:33:17.916Z,20.80
2022-07-27T08:35:46.755Z,20.60
2022-07-27T08:38:14.754Z,20.40
2022-07-27T08:40:45.515Z,20.60
2022-07-27T08:43:23.360Z,21.10
2022-07-27T08:45:57.159Z,21.30
2022-07-27T08:48:25.762Z,21.50
2022-07-27T08:50:54.368Z,21.80
2022-07-27T08:53:23.560Z,21.70
2022-07-27T08:55:52.162Z,21.50
2022-07-27T08:58:20.271Z,21.50
2022-07-27T09:00:50.006Z,21.50
2022-07-27T09:03:21.832Z,21.50
2022-07-27T09:05:52.015Z,21.70
2022-07-27T09:08:23.948Z,22.00
2022-07-27T09:10:54.420Z,21.70
2022-07-27T09:13:25.495Z,21.80
2022-07-27T09:18:44.542Z,21.70
2022-07-27T09:21:15.641Z,21.10
2022-07-27T09:23:47.870Z,20.90
2022-07-27T09:26:31.218Z,20.40
2022-07-27T09:29:01.946Z,20.30
2022-07-27T09:31:30.010Z,20.40
2022-07-27T09:34:01.202Z,20.50
2022-07-27T09:36:30.838Z,20.60
2022-07-27T09:39:03.135Z,20.70
2022-07-27T09:41:42.489Z,20.90
2022-07-27T09:46:58.857Z,21.40
2022-07-27T09:49:33.310Z,21.80
2022-07-27T09:52:02.921Z,22.00
2022-07-27T09:54:44.532Z,22.20
2022-07-27T09:57:12.626Z,22.10
2022-07-27T09:59:41.391Z,21.90
2022-07-27T10:02:09.646Z,21.90
2022-07-27T10:04:39.688Z,22.10
2022-07-27T10:07:13.002Z,22.40
2022-07-27T10:09:41.981Z,22.50
2022-07-27T10:12:10.664Z,22.60
2022-07-27T10:14:38.634Z,22.60
2022-07-27T10:17:10.625Z,22.70
2022-07-27T10:19:47.530Z,22.50
2022-07-27T10:22:16.053Z,22.50
2022-07-27T10:24:44.295Z,22.20
2022-07-27T10:27:27.926Z,22.30
2022-07-27T10:29:56.846Z,22.20
2022-07-27T10:32:25.924Z,22.00
2022-07-27T10:34:55.431Z,21.90
2022-07-27T10:37:27.741Z,21.80
2022-07-27T10:40:11.160Z,21.70
2022-07-27T10:42:39.619Z,21.60
2022-07-27T10:45:09.936Z,21.40
2022-07-27T10:47:41.524Z,21.40
2022-07-27T10:50:37.930Z,21.40
2022-07-27T10:53:08.386Z,21.60
2022-07-27T10:55:52.395Z,21.80
2022-07-27T10:58:51.662Z,21.90
2022-07-27T11:01:23.951Z,21.80
2022-07-27T11:03:59.251Z,21.90
2022-07-27T11:06:33.463Z,21.80
2022-07-27T11:11:56.469Z,21.90
2022-07-27T11:14:30.977Z,22.10
2022-07-27T11:17:18.009Z,22.20
2022-07-27T11:19:53.573Z,22.50
2022-07-27T11:25:20.394Z,22.20
2022-07-27T11:27:49.205Z,21.90
2022-07-27T11:30:24.611Z,21.80
2022-07-27T11:32:52.629Z,21.70
2022-07-27T11:35:20.723Z,21.80
2022-07-27T11:38:01.385Z,21.80
2022-07-27T11:43:36.909Z,21.80
2022-07-27T11:46:16.352Z,21.90
2022-07-27T11:49:06.131Z,22.10
2022-07-27T11:51:35.675Z,22.30
2022-07-27T11:54:06.979Z,22.30
2022-07-27T11:56:36.656Z,22.40
2022-07-27T11:59:11.624Z,22.30
2022-07-27T12:01:42.411Z,22.20
2022-07-27T12:04:18.610Z,22.20
2022-07-27T12:06:49.378Z,22.40
2022-07-27T12:09:19.348Z,22.60
2022-07-27T12:11:50.307Z,22.90
2022-07-27T12:14:19.037Z,23.10
2022-07-27T12:16:47.177Z,23.20
2022-07-27T12:19:23.927Z,23.20
2022-07-27T12:21:55.257Z,23.30
2022-07-27T12:24:35.982Z,23.40
2022-07-27T12:27:09.997Z,23.20
2022-07-27T12:29:57.464Z,23.50
2022-07-27T12:32:25.945Z,23.70
2022-07-27T12:34:54.682Z,23.60
2022-07-27T12:37:22.955Z,23.80
2022-07-27T12:39:52.259Z,23.80
2022-07-27T12:42:20.360Z,23.80
2022-07-27T12:44:48.484Z,23.60
2022-07-27T12:47:33.610Z,23.40
2022-07-27T12:50:06.048Z,23.10
2022-07-27T12:52:34.672Z,22.70
2022-07-27T12:55:05.595Z,22.50
2022-07-27T12:57:54.620Z,22.40
2022-07-27T13:00:29.438Z,22.30
2022-07-27T13:03:01.501Z,22.10
2022-07-27T13:05:29.501Z,22.10
2022-07-27T13:07:57.935Z,22.10
2022-07-27T13:10:27.893Z,22.10
2022-07-27T13:12:55.986Z,22.10
2022-07-27T13:15:24.090Z,22.20
2022-07-27T13:17:52.057Z,22.20
2022-07-27T13:20:20.179Z,22.40
2022-07-27T13:22:48.382Z,22.50
2022-07-27T13:25:17.843Z,22.60
2022-07-27T13:27:48.090Z,22.60
2022-07-27T13:30:18.177Z,22.60
2022-07-27T13:32:47.875Z,22.70
2022-07-27T13:35:16.952Z,22.40
2022-07-27T13:37:45.977Z,22.20
2022-07-27T13:40:14.647Z,21.80
2022-07-27T13:42:42.641Z,21.80
2022-07-27T13:45:12.508Z,21.90
2022-07-27T13:47:41.534Z,22.10
2022-07-27T13:50:17.866Z,22.10
2022-07-27T13:52:46.454Z,22.30
2022-07-27T13:55:15.073Z,22.50
2022-07-27T13:57:43.037Z,22.50
2022-07-27T14:00:13.525Z,22.40
2022-07-27T14:02:41.911Z,22.40
2022-07-27T14:05:12.969Z,22.50
2022-07-27T14:07:43.436Z,22.50
2022-07-27T14:10:30.875Z,22.60
2022-07-27T14:13:08.190Z,22.60
2022-07-27T14:15:52.983Z,22.70
2022-07-27T14:18:23.887Z,22.50
2022-07-27T14:20:51.807Z,22.40
2022-07-27T14:23:19.761Z,22.40
2022-07-27T14:25:47.699Z,22.60
2022-07-27T14:28:16.048Z,23.10
2022-07-27T14:30:45.399Z,23.30
2022-07-27T14:33:13.534Z,23.60
2022-07-27T14:35:41.584Z,24.00
2022-07-27T14:38:10.243Z,24.40
2022-07-27T14:40:38.667Z,24.50
2022-07-27T14:43:06.693Z,24.60
2022-07-27T14:45:45.396Z,24.50
2022-07-27T14:48:23.058Z,24.20
2022-07-27T14:50:53.259Z,24.20
2022-07-27T14:53:21.193Z,23.80
2022-07-27T14:55:49.143Z,23.40
2022-07-27T14:58:17.135Z,23.20
2022-07-27T15:00:45.226Z,23.40
2022-07-27T15:03:14.842Z,23.10
2022-07-27T15:05:50.374Z,22.90
2022-07-27T15:08:19.823Z,22.70
2022-07-27T15:10:48.899Z,22.60
2022-07-27T15:13:17.931Z,22.50
2022-07-27T15:15:48.304Z,22.60
2022-07-27T15:18:18.834Z,22.70
2022-07-27T15:20:48.447Z,22.80
2022-07-27T15:23:16.818Z,22.90
2022-07-27T15:25:44.825Z,22.90
2022-07-27T15:28:13.058Z,22.90
2022-07-27T15:30:41.274Z,22.90
2022-07-27T15:33:09.272Z,22.90
2022-07-27T15:35:37.233Z,22.70
2022-07-27T15:38:06.783Z,22.70
2022-07-27T15:40:41.560Z,22.70
2022-07-27T15:43:11.725Z,23.00
2022-07-27T15:45:40.234Z,23.50
2022-07-27T15:48:09.561Z,23.80
2022-07-27T15:50:37.951Z,23.90
2022-07-27T15:53:07.447Z,24.00
2022-07-27T15:55:37.342Z,24.00
2022-07-27T15:58:06.123Z,24.20
2022-07-27T16:00:39.120Z,24.20
2022-07-27T16:03:08.413Z,24.40
2022-07-27T16:05:36.379Z,24.80
2022-07-27T16:08:04.413Z,25.00
2022-07-27T16:10:33.717Z,25.20
2022-07-27T16:13:01.789Z,25.40
2022-07-27T16:15:44.039Z,25.50
2022-07-27T16:18:12.232Z,25.60
2022-07-27T16:20:40.407Z,25.80
2022-07-27T16:23:18.047Z,25.80
2022-07-27T16:26:04.099Z,25.90
2022-07-27T16:28:34.727Z,25.90
2022-07-27T16:31:02.960Z,25.90
2022-07-27T16:33:31.527Z,26.00
2022-07-27T16:35:59.620Z,25.90
2022-07-27T16:38:27.585Z,26.00
2022-07-27T16:40:56.933Z,26.00
2022-07-27T16:43:37.961Z,26.00
2022-07-27T16:46:10.022Z,26.00
2022-07-27T16:48:42.219Z,26.10
2022-07-27T16:51:12.431Z,25.80
2022-07-27T16:53:40.968Z,25.60
2022-07-27T16:56:11.127Z,25.50
2022-07-27T16:58:39.517Z,25.40
2022-07-27T17:01:08.196Z,25.50
2022-07-27T17:03:36.179Z,25.50
2022-07-27T17:06:06.589Z,25.30
2022-07-27T17:08:35.681Z,25.10
2022-07-27T17:11:05.219Z,25.00
2022-07-27T17:13:36.698Z,24.80
2022-07-27T17:16:05.773Z,24.70
2022-07-27T17:18:39.891Z,24.70
2022-07-27T17:21:09.363Z,24.40
2022-07-27T17:23:39.735Z,24.30
2022-07-27T17:26:08.909Z,24.30
2022-07-27T17:28:40.200Z,24.40
2022-07-27T17:31:10.723Z,24.60
2022-07-27T17:33:39.341Z,24.60
2022-07-27T17:36:13.996Z,24.70
2022-07-27T17:38:43.937Z,24.80
2022-07-27T17:41:12.295Z,24.70
2022-07-27T17:43:41.646Z,24.40
2022-07-27T17:46:11.360Z,24.20
2022-07-27T17:48:40.748Z,24.00
2022-07-27T17:51:10.461Z,24.00
2022-07-27T17:53:38.607Z,24.00
2022-07-27T17:56:08.210Z,23.80
2022-07-27T17:58:36.523Z,23.70
2022-07-27T18:01:06.212Z,23.80
2022-07-27T18:03:34.801Z,23.70
2022-07-27T18:06:02.981Z,23.70
2022-07-27T18:08:30.961Z,23.50
2022-07-27T18:10:58.879Z,23.50
2022-07-27T18:13:38.903Z,23.60
2022-07-27T18:16:11.492Z,23.60
2022-07-27T18:18:40.597Z,23.90
2022-07-27T18:21:10.406Z,23.60
2022-07-27T18:23:38.392Z,23.40
2022-07-27T18:26:06.843Z,23.60
2022-07-27T18:28:39.404Z,23.90
2022-07-27T18:31:09.812Z,24.10
2022-07-27T18:33:38.055Z,23.90
2022-07-27T18:36:06.667Z,23.70
2022-07-27T18:38:34.727Z,23.70
2022-07-27T18:41:03.006Z,23.70
2022-07-27T18:43:31.047Z,23.60
2022-07-27T18:45:59.080Z,23.60
2022-07-27T18:48:28.842Z,23.80
2022-07-27T18:50:57.362Z,23.80
2022-07-27T18:53:25.393Z,23.70
2022-07-27T18:55:56.525Z,23.50
2022-07-27T18:58:25.172Z,23.50
2022-07-27T19:00:54.563Z,23.20
2022-07-27T19:03:24.536Z,23.20
2022-07-27T19:05:54.772Z,23.20
2022-07-27T19:08:23.873Z,23.40
2022-07-27T19:10:52.157Z,23.40
2022-07-27T19:13:20.325Z,23.60
2022-07-27T19:15:48.315Z,23.60
2022-07-27T19:18:16.265Z,23.70
2022-07-27T19:20:44.234Z,23.60
2022-07-27T19:23:13.646Z,23.80
2022-07-27T19:25:41.745Z,23.90
2022-07-27T19:28:09.680Z,24.00
2022-07-27T19:30:38.671Z,24.20
2022-07-27T19:33:06.931Z,24.40
2022-07-27T19:35:35.116Z,24.50
2022-07-27T19:38:03.297Z,24.50
2022-07-27T19:40:44.143Z,24.50
2022-07-27T19:43:13.550Z,24.50
2022-07-27T19:45:41.717Z,24.60
2022-07-27T19:48:09.822Z,24.70
2022-07-27T19:50:37.757Z,24.70
2022-07-27T19:53:05.831Z,24.70
2022-07-27T19:55:35.589Z,24.80
2022-07-27T19:58:03.575Z,24.90
2022-07-27T20:00:32.355Z,24.90
2022-07-27T20:03:00.374Z,24.90
2022-07-27T20:05:28.437Z,25.00
2022-07-27T20:07:56.398Z,24.80
2022-07-27T20:10:25.312Z,24.60
2022-07-27T20:12:54.799Z,24.50
2022-07-27T20:15:22.870Z,24.40
2022-07-27T20:17:51.090Z,24.20
2022-07-27T20:20:19.530Z,24.10
2022-07-27T20:22:47.483Z,23.90
2022-07-27T20:25:15.719Z,23.70
2022-07-27T20:27:43.998Z,23.60
2022-07-27T20:30:16.231Z,23.50
2022-07-27T20:32:44.329Z,23.30
2022-07-27T20:35:12.320Z,23.20
2022-07-27T20:37:41.162Z,23.10
2022-07-27T20:40:11.607Z,22.90
2022-07-27T20:42:40.195Z,22.90
2022-07-27T20:45:11.251Z,22.80
2022-07-27T20:47:41.183Z,22.70
2022-07-27T20:50:10.820Z,22.70
2022-07-27T20:52:39.013Z,22.60
2022-07-27T20:55:08.012Z,22.60
2022-07-27T20:57:36.288Z,22.40
2022-07-27T21:00:06.491Z,22.40
2022-07-27T21:02:34.972Z,22.40
2022-07-27T21:05:04.868Z,22.40
2022-07-27T21:07:32.860Z,22.40
2022-07-27T21:10:00.909Z,22.30
2022-07-27T21:12:29.116Z,22.50
2022-07-27T21:14:57.089Z,22.60
2022-07-27T21:17:25.063Z,22.60
2022-07-27T21:19:53.346Z,22.70
2022-07-27T21:22:22.681Z,22.90
2022-07-27T21:24:51.351Z,23.10
2022-07-27T21:27:21.190Z,23.10
2022-07-27T21:29:49.900Z,23.20
2022-07-27T21:32:18.375Z,23.10
2022-07-27T21:34:46.472Z,23.10
2022-07-27T21:37:14.462Z,23.20
2022-07-27T21:39:45.655Z,23.20
2022-07-27T21:42:14.051Z,23.20
2022-07-27T21:44:42.083Z,23.20
2022-07-27T21:47:13.658Z,23.10
2022-07-27T21:49:42.396Z,23.20
2022-07-27T21:52:11.166Z,23.10
2022-07-27T21:54:39.407Z,23.10
2022-07-27T21:57:08.767Z,23.00
2022-07-27T21:59:36.706Z,23.00
2022-07-27T22:02:04.884Z,23.00
2022-07-27T22:04:32.900Z,23.00
2022-07-27T22:07:00.908Z,23.00
2022-07-27T22:09:29.027Z,23.00
2022-07-27T22:11:56.980Z,23.10
2022-07-27T22:14:26.242Z,23.10
2022-07-27T22:16:54.289Z,23.20
2022-07-27T22:19:22.479Z,22.80
2022-07-27T22:21:50.633Z,22.80
2022-07-27T22:24:18.582Z,22.80
2022-07-27T22:26:46.546Z,22.60
2022-07-27T22:29:14.568Z,22.60
2022-07-27T22:31:43.918Z,22.70
2022-07-27T22:34:12.205Z,22.50
2022-07-27T22:36:40.291Z,22.50
2022-07-27T22:39:08.275Z,22.20
2022-07-27T22:41:36.198Z,22.00
2022-07-27T22:44:04.214Z,21.90
2022-07-27T22:46:32.316Z,21.70
2022-07-27T22:49:02.769Z,21.40
2022-07-27T22:51:48.910Z,21.40
2022-07-27T22:54:18.687Z,21.40
2022-07-27T22:56:47.081Z,21.70
2022-07-27T22:59:15.123Z,21.70
2022-07-27T23:01:47.266Z,21.80
2022-07-27T23:04:18.179Z,21.90
2022-07-27T23:06:46.661Z,22.00
2022-07-27T23:09:14.727Z,22.10
2022-07-27T23:11:43.152Z,22.00
2022-07-27T23:14:11.645Z,22.10
2022-07-27T23:16:40.083Z,22.20
2022-07-27T23:19:08.176Z,22.20
2022-07-27T23:21:39.406Z,22.20
2022-07-27T23:24:08.011Z,22.20
2022-07-27T23:26:37.913Z,22.10
2022-07-27T23:29:05.966Z,22.00
2022-07-27T23:31:34.111Z,21.90
2022-07-27T23:34:02.168Z,21.60
2022-07-27T23:36:30.390Z,21.50
2022-07-27T23:38:59.737Z,21.40
2022-07-27T23:41:28.155Z,21.40
2022-07-27T23:43:56.084Z,21.40
2022-07-27T23:46:24.067Z,21.40
2022-07-27T23:48:52.174Z,21.40
2022-07-27T23:51:20.587Z,21.30
2022-07-27T23:53:49.088Z,21.10
2022-07-27T23:56:18.382Z,21.00
2022-07-27T23:58:46.360Z,21.00
